sensor_id;sensor_type;location;lat;lon;timestamp;temperature;humidity
15676;DHT22;7938;47.666;9.434;2022-10-16T04:01:56;11.80;99.90
15676;DHT22;7938;47.666;9.434;2022-10-16T04:04:23;12.20;99.90
15676;DHT22;7938;47.666;9.434;2022-10-16T04:06:50;12.10;99.90
15676;DHT22;7938;47.666;9.434;2022-10-16T04:09:17;12.00;99.90
15676;DHT22;7938;47.666;9.434;2022-10-16T04:11:44;12.00;99.90
15676;DHT22;7938;47.666;9.434;2022-10-16T04:14:11;11.80;99.90
15676;DHT22;7938;47.666;9.434;2022-10-16T04:16:38;11.70;99.90
15676;DHT22;7938;47.666;9.434;2022-10-16T04:19:06;11.70;99.90
15676;DHT22;7938;47.666;9.434;2022-10-16T04:21:33;11.60;99.90
15676;DHT22;7938;47.666;9.434;2022-10-16T04:24:00;11.60;99.90
15676;DHT22;7938;47.666;9.434;2022-10-16T04:26:27;11.60;99.90
15676;DHT22;7938;47.666;9.434;2022-10-16T04:28:53;11.50;99.90
15676;DHT22;7938;47.666;9.434;2022-10-16T04:31:21;11.40;99.90
15676;DHT22;7938;47.666;9.434;2022-10-16T04:33:47;11.40;99.90
15676;DHT22;7938;47.666;9.434;2022-10-16T04:36:16;11.30;99.90
15676;DHT22;7938;47.666;9.434;2022-10-16T04:38:42;11.30;99.90
15676;DHT22;7938;47.666;9.434;2022-10-16T04:41:09;11.30;99.90
15676;DHT22;7938;47.666;9.434;2022-10-16T04:43:36;11.30;99.90
15676;DHT22;7938;47.666;9.434;2022-10-16T04:46:03;11.30;99.90
15676;DHT22;7938;47.666;9.434;2022-10-16T04:48:30;11.30;99.90
15676;DHT22;7938;47.666;9.434;2022-10-16T04:50:57;11.30;99.90
15676;DHT22;7938;47.666;9.434;2022-10-16T04:53:25;11.30;99.90
15676;DHT22;7938;47.666;9.434;2022-10-16T04:55:52;11.40;99.90
15676;DHT22;7938;47.666;9.434;2022-10-16T04:58:19;11.40;99.90
15676;DHT22;7938;47.666;9.434;2022-10-16T05:00:46;11.40;99.90
15676;DHT22;7938;47.666;9.434;2022-10-16T05:03:13;11.50;99.90
15676;DHT22;7938;47.666;9.434;2022-10-16T05:05:43;11.60;99.90
15676;DHT22;7938;47.666;9.434;2022-10-16T05:08:10;11.50;99.90
15676;DHT22;7938;47.666;9.434;2022-10-16T05:10:40;11.60;99.90
15676;DHT22;7938;47.666;9.434;2022-10-16T05:13:07;11.70;99.90
15676;DHT22;7938;47.666;9.434;2022-10-16T05:15:34;11.70;99.90
15676;DHT22;7938;47.666;9.434;2022-10-16T05:18:01;11.70;99.90
15676;DHT22;7938;47.666;9.434;2022-10-16T05:20:28;11.70;99.90
15676;DHT22;7938;47.666;9.434;2022-10-16T05:22:55;11.70;99.90
15676;DHT22;7938;47.666;9.434;2022-10-16T05:25:22;11.70;99.90
15676;DHT22;7938;47.666;9.434;2022-10-16T05:27:50;11.60;99.90
15676;DHT22;7938;47.666;9.434;2022-10-16T05:30:17;11.60;99.90
15676;DHT22;7938;47.666;9.434;2022-10-16T05:32:47;11.60;99.90
15676;DHT22;7938;47.666;9.434;2022-10-16T05:35:14;11.60;99.90
15676;DHT22;7938;47.666;9.434;2022-10-16T05:37:41;11.60;99.90
15676;DHT22;7938;47.666;9.434;2022-10-16T05:40:08;11.60;99.90
15676;DHT22;7938;47.666;9.434;2022-10-16T05:42:35;11.70;99.90
15676;DHT22;7938;47.666;9.434;2022-10-16T05:45:05;11.70;99.90
15676;DHT22;7938;47.666;9.434;2022-10-16T05:47:32;11.70;99.90
15676;DHT22;7938;47.666;9.434;2022-10-16T05:49:59;11.80;99.90
15676;DHT22;7938;47.666;9.434;2022-10-16T05:52:26;11.70;99.90
15676;DHT22;7938;47.666;9.434;2022-10-16T05:54:53;11.70;99.90
15676;DHT22;7938;47.666;9.434;2022-10-16T05:57:20;11.70;99.90
15676;DHT22;7938;47.666;9.434;2022-10-16T05:59:47;11.70;99.90
15676;DHT22;7938;47.666;9.434;2022-10-16T06:02:15;11.70;99.90
15676;DHT22;7938;47.666;9.434;2022-10-16T06:04:42;11.70;99.90
15676;DHT22;7938;47.666;9.434;2022-10-16T06:07:09;11.70;99.90
15676;DHT22;7938;47.666;9.434;2022-10-16T06:09:36;11.70;99.90
15676;DHT22;7938;47.666;9.434;2022-10-16T06:12:03;11.80;99.90
15676;DHT22;7938;47.666;9.434;2022-10-16T06:14:30;11.80;99.90
15676;DHT22;7938;47.666;9.434;2022-10-16T06:16:57;11.80;99.90
15676;DHT22;7938;47.666;9.434;2022-10-16T06:19:25;11.90;99.90
15676;DHT22;7938;47.666;9.434;2022-10-16T06:21:52;11.90;99.90
15676;DHT22;7938;47.666;9.434;2022-10-16T06:24:18;11.90;99.90
15676;DHT22;7938;47.666;9.434;2022-10-16T06:26:45;11.90;99.90
15676;DHT22;7938;47.666;9.434;2022-10-16T06:29:12;12.00;99.90
15676;DHT22;7938;47.666;9.434;2022-10-16T06:31:39;12.10;99.90
15676;DHT22;7938;47.666;9.434;2022-10-16T06:34:08;12.20;99.90
15676;DHT22;7938;47.666;9.434;2022-10-16T06:36:38;12.30;99.90
15676;DHT22;7938;47.666;9.434;2022-10-16T06:39:05;12.40;99.90
15676;DHT22;7938;47.666;9.434;2022-10-16T06:41:33;12.60;99.90
15676;DHT22;7938;47.666;9.434;2022-10-16T06:44:00;12.70;99.90
15676;DHT22;7938;47.666;9.434;2022-10-16T06:46:27;12.80;99.90
15676;DHT22;7938;47.666;9.434;2022-10-16T06:48:54;12.90;99.90
15676;DHT22;7938;47.666;9.434;2022-10-16T06:51:22;13.00;99.90
15676;DHT22;7938;47.666;9.434;2022-10-16T06:53:52;13.10;99.90
15676;DHT22;7938;47.666;9.434;2022-10-16T06:56:20;13.20;99.90
15676;DHT22;7938;47.666;9.434;2022-10-16T06:58:48;13.40;99.90
15676;DHT22;7938;47.666;9.434;2022-10-16T07:01:16;13.40;99.90
15676;DHT22;7938;47.666;9.434;2022-10-16T07:03:45;13.50;99.90
15676;DHT22;7938;47.666;9.434;2022-10-16T07:06:14;13.50;99.90
15676;DHT22;7938;47.666;9.434;2022-10-16T07:08:43;13.60;99.90
15676;DHT22;7938;47.666;9.434;2022-10-16T07:11:12;13.60;99.90
15676;DHT22;7938;47.666;9.434;2022-10-16T07:13:41;13.60;99.90
15676;DHT22;7938;47.666;9.434;2022-10-16T07:16:10;13.70;99.90
15676;DHT22;7938;47.666;9.434;2022-10-16T07:18:37;13.80;99.90
15676;DHT22;7938;47.666;9.434;2022-10-16T07:21:06;13.90;99.90
15676;DHT22;7938;47.666;9.434;2022-10-16T07:23:33;14.00;99.90
15676;DHT22;7938;47.666;9.434;2022-10-16T07:26:01;14.10;99.90
15676;DHT22;7938;47.666;9.434;2022-10-16T07:28:29;14.10;99.90
15676;DHT22;7938;47.666;9.434;2022-10-16T07:31:00;14.20;99.90
15676;DHT22;7938;47.666;9.434;2022-10-16T07:33:27;14.20;99.90
15676;DHT22;7938;47.666;9.434;2022-10-16T07:35:54;14.20;99.90
15676;DHT22;7938;47.666;9.434;2022-10-16T07:38:21;14.20;99.90
15676;DHT22;7938;47.666;9.434;2022-10-16T07:40:55;14.20;99.90
15676;DHT22;7938;47.666;9.434;2022-10-16T07:43:22;14.10;99.90
15676;DHT22;7938;47.666;9.434;2022-10-16T07:45:50;14.10;99.90
15676;DHT22;7938;47.666;9.434;2022-10-16T07:48:18;14.00;99.90
15676;DHT22;7938;47.666;9.434;2022-10-16T07:50:45;14.10;99.90
15676;DHT22;7938;47.666;9.434;2022-10-16T07:53:12;14.00;99.90
15676;DHT22;7938;47.666;9.434;2022-10-16T07:55:39;14.00;99.90
15676;DHT22;7938;47.666;9.434;2022-10-16T07:58:06;14.00;99.90
15676;DHT22;7938;47.666;9.434;2022-10-16T08:00:35;14.20;99.90
15676;DHT22;7938;47.666;9.434;2022-10-16T08:03:04;14.20;99.90
15676;DHT22;7938;47.666;9.434;2022-10-16T08:05:32;14.30;99.90
15676;DHT22;7938;47.666;9.434;2022-10-16T08:07:59;14.50;99.90
15676;DHT22;7938;47.666;9.434;2022-10-16T08:10:27;14.90;99.90
15676;DHT22;7938;47.666;9.434;2022-10-16T08:12:54;14.90;99.90
15676;DHT22;7938;47.666;9.434;2022-10-16T08:15:21;15.10;99.90
15676;DHT22;7938;47.666;9.434;2022-10-16T08:17:55;15.00;99.90
15676;DHT22;7938;47.666;9.434;2022-10-16T08:20:23;14.90;99.90
15676;DHT22;7938;47.666;9.434;2022-10-16T08:22:50;14.90;99.90
15676;DHT22;7938;47.666;9.434;2022-10-16T08:25:17;14.90;99.90
15676;DHT22;7938;47.666;9.434;2022-10-16T08:27:44;15.20;99.90
15676;DHT22;7938;47.666;9.434;2022-10-16T08:30:11;15.40;99.90
15676;DHT22;7938;47.666;9.434;2022-10-16T08:32:38;15.50;99.90
15676;DHT22;7938;47.666;9.434;2022-10-16T08:35:05;15.80;99.90
15676;DHT22;7938;47.666;9.434;2022-10-16T08:37:33;16.20;99.90
15676;DHT22;7938;47.666;9.434;2022-10-16T08:40:00;16.50;99.90
15676;DHT22;7938;47.666;9.434;2022-10-16T08:42:35;16.70;99.90
15676;DHT22;7938;47.666;9.434;2022-10-16T08:45:21;17.00;99.90
15676;DHT22;7938;47.666;9.434;2022-10-16T08:47:59;17.10;99.90
15676;DHT22;7938;47.666;9.434;2022-10-16T08:50:29;17.10;99.90
15676;DHT22;7938;47.666;9.434;2022-10-16T08:52:58;17.10;99.90
15676;DHT22;7938;47.666;9.434;2022-10-16T08:55:30;17.10;99.90
15676;DHT22;7938;47.666;9.434;2022-10-16T08:57:59;16.90;99.90
15676;DHT22;7938;47.666;9.434;2022-10-16T09:00:27;17.00;99.90
15676;DHT22;7938;47.666;9.434;2022-10-16T09:03:01;17.00;99.90
15676;DHT22;7938;47.666;9.434;2022-10-16T09:05:52;17.10;99.90
15676;DHT22;7938;47.666;9.434;2022-10-16T09:08:28;17.20;99.90
15676;DHT22;7938;47.666;9.434;2022-10-16T09:10:59;17.20;99.90
15676;DHT22;7938;47.666;9.434;2022-10-16T09:13:35;17.30;99.90
15676;DHT22;7938;47.666;9.434;2022-10-16T09:16:13;17.20;99.90
15676;DHT22;7938;47.666;9.434;2022-10-16T09:18:45;17.20;99.90
15676;DHT22;7938;47.666;9.434;2022-10-16T09:21:18;17.20;99.90
15676;DHT22;7938;47.666;9.434;2022-10-16T09:26:16;17.30;99.90
15676;DHT22;7938;47.666;9.434;2022-10-16T09:28:45;17.20;99.90
15676;DHT22;7938;47.666;9.434;2022-10-16T09:31:19;17.30;99.90
15676;DHT22;7938;47.666;9.434;2022-10-16T09:33:49;17.30;99.90
15676;DHT22;7938;47.666;9.434;2022-10-16T09:36:17;17.30;99.90
15676;DHT22;7938;47.666;9.434;2022-10-16T09:38:44;17.30;99.90
15676;DHT22;7938;47.666;9.434;2022-10-16T09:41:17;17.20;99.90
15676;DHT22;7938;47.666;9.434;2022-10-16T09:43:52;17.20;99.90
15676;DHT22;7938;47.666;9.434;2022-10-16T09:46:26;17.20;99.90
15676;DHT22;7938;47.666;9.434;2022-10-16T09:48:56;17.40;99.90
15676;DHT22;7938;47.666;9.434;2022-10-16T09:51:25;17.40;99.90
15676;DHT22;7938;47.666;9.434;2022-10-16T09:53:56;17.40;99.90
15676;DHT22;7938;47.666;9.434;2022-10-16T09:56:27;17.40;99.90
15676;DHT22;7938;47.666;9.434;2022-10-16T09:58:56;17.30;99.90
15676;DHT22;7938;47.666;9.434;2022-10-16T10:01:27;17.20;99.90
15676;DHT22;7938;47.666;9.434;2022-10-16T10:03:56;17.10;99.90
15676;DHT22;7938;47.666;9.434;2022-10-16T10:06:28;17.20;99.90
15676;DHT22;7938;47.666;9.434;2022-10-16T10:08:57;17.50;99.90
15676;DHT22;7938;47.666;9.434;2022-10-16T10:11:43;17.70;99.90
15676;DHT22;7938;47.666;9.434;2022-10-16T10:14:21;17.90;99.90
15676;DHT22;7938;47.666;9.434;2022-10-16T10:16:49;18.10;99.90
15676;DHT22;7938;47.666;9.434;2022-10-16T10:19:18;18.40;99.90
15676;DHT22;7938;47.666;9.434;2022-10-16T10:21:46;18.70;99.90
15676;DHT22;7938;47.666;9.434;2022-10-16T10:24:14;18.90;99.90
15676;DHT22;7938;47.666;9.434;2022-10-16T10:26:49;19.20;99.90
15676;DHT22;7938;47.666;9.434;2022-10-16T10:29:31;19.60;99.90
15676;DHT22;7938;47.666;9.434;2022-10-16T10:32:07;19.70;99.90
15676;DHT22;7938;47.666;9.434;2022-10-16T10:37:45;20.00;99.90
15676;DHT22;7938;47.666;9.434;2022-10-16T10:40:28;20.10;99.90
15676;DHT22;7938;47.666;9.434;2022-10-16T10:43:04;20.00;99.90
15676;DHT22;7938;47.666;9.434;2022-10-16T10:45:41;20.10;99.90
15676;DHT22;7938;47.666;9.434;2022-10-16T10:48:20;20.00;99.90
15676;DHT22;7938;47.666;9.434;2022-10-16T10:50:51;19.80;99.90
15676;DHT22;7938;47.666;9.434;2022-10-16T10:53:28;19.50;99.90
15676;DHT22;7938;47.666;9.434;2022-10-16T10:56:04;19.30;99.90
15676;DHT22;7938;47.666;9.434;2022-10-16T10:59:02;19.10;99.90
15676;DHT22;7938;47.666;9.434;2022-10-16T11:01:39;19.00;99.90
15676;DHT22;7938;47.666;9.434;2022-10-16T11:04:23;19.00;99.90
15676;DHT22;7938;47.666;9.434;2022-10-16T11:06:59;19.20;99.90
15676;DHT22;7938;47.666;9.434;2022-10-16T11:09:30;19.30;99.90
15676;DHT22;7938;47.666;9.434;2022-10-16T11:12:01;19.50;99.90
15676;DHT22;7938;47.666;9.434;2022-10-16T11:14:34;19.60;99.90
15676;DHT22;7938;47.666;9.434;2022-10-16T11:17:05;19.70;99.90
15676;DHT22;7938;47.666;9.434;2022-10-16T11:19:39;19.50;99.90
15676;DHT22;7938;47.666;9.434;2022-10-16T11:22:13;19.40;99.90
15676;DHT22;7938;47.666;9.434;2022-10-16T11:24:45;19.20;99.90
15676;DHT22;7938;47.666;9.434;2022-10-16T11:27:17;19.10;99.90
15676;DHT22;7938;47.666;9.434;2022-10-16T11:29:52;19.10;99.90
15676;DHT22;7938;47.666;9.434;2022-10-16T11:32:25;19.10;99.90
15676;DHT22;7938;47.666;9.434;2022-10-16T11:34:57;19.20;99.90
15676;DHT22;7938;47.666;9.434;2022-10-16T11:37:32;19.20;99.90
15676;DHT22;7938;47.666;9.434;2022-10-16T11:40:05;19.30;99.90
15676;DHT22;7938;47.666;9.434;2022-10-16T11:42:46;19.40;99.90
15676;DHT22;7938;47.666;9.434;2022-10-16T11:45:24;19.50;99.90
15676;DHT22;7938;47.666;9.434;2022-10-16T11:47:58;19.70;99.90
15676;DHT22;7938;47.666;9.434;2022-10-16T11:50:31;19.90;99.90
15676;DHT22;7938;47.666;9.434;2022-10-16T11:53:04;19.90;99.90
15676;DHT22;7938;47.666;9.434;2022-10-16T11:55:37;20.00;99.90
15676;DHT22;7938;47.666;9.434;2022-10-16T11:58:09;20.20;99.90
15676;DHT22;7938;47.666;9.434;2022-10-16T12:00:46;20.30;99.90
15676;DHT22;7938;47.666;9.434;2022-10-16T12:03:20;20.30;99.90
15676;DHT22;7938;47.666;9.434;2022-10-16T12:06:02;20.30;99.90
15676;DHT22;7938;47.666;9.434;2022-10-16T12:08:34;20.00;99.90
15676;DHT22;7938;47.666;9.434;2022-10-16T12:11:09;20.00;99.90
15676;DHT22;7938;47.666;9.434;2022-10-16T12:13:38;20.00;99.90
15676;DHT22;7938;47.666;9.434;2022-10-16T12:16:23;20.10;99.90
15676;DHT22;7938;47.666;9.434;2022-10-16T12:18:50;20.20;99.90
15676;DHT22;7938;47.666;9.434;2022-10-16T12:21:31;20.40;99.90
15676;DHT22;7938;47.666;9.434;2022-10-16T12:24:02;20.40;99.90
15676;DHT22;7938;47.666;9.434;2022-10-16T12:26:32;20.40;99.90
15676;DHT22;7938;47.666;9.434;2022-10-16T12:29:13;20.40;99.90
15676;DHT22;7938;47.666;9.434;2022-10-16T12:31:45;20.20;99.90
15676;DHT22;7938;47.666;9.434;2022-10-16T12:34:23;20.20;99.90
15676;DHT22;7938;47.666;9.434;2022-10-16T12:36:54;20.10;99.90
15676;DHT22;7938;47.666;9.434;2022-10-16T12:39:22;20.00;99.90
15676;DHT22;7938;47.666;9.434;2022-10-16T12:42:01;20.00;99.90
15676;DHT22;7938;47.666;9.434;2022-10-16T12:44:32;19.90;99.90
15676;DHT22;7938;47.666;9.434;2022-10-16T12:47:01;19.80;99.90
15676;DHT22;7938;47.666;9.434;2022-10-16T12:49:35;20.00;99.90
15676;DHT22;7938;47.666;9.434;2022-10-16T12:52:03;20.00;99.90
15676;DHT22;7938;47.666;9.434;2022-10-16T12:54:36;20.10;99.90
15676;DHT22;7938;47.666;9.434;2022-10-16T12:57:23;20.10;99.90
15676;DHT22;7938;47.666;9.434;2022-10-16T13:00:00;20.00;99.90
15676;DHT22;7938;47.666;9.434;2022-10-16T13:02:54;20.20;99.90
15676;DHT22;7938;47.666;9.434;2022-10-16T13:05:30;20.40;99.90
15676;DHT22;7938;47.666;9.434;2022-10-16T13:08:09;20.40;99.90
15676;DHT22;7938;47.666;9.434;2022-10-16T13:10:42;20.50;99.90
15676;DHT22;7938;47.666;9.434;2022-10-16T13:13:34;20.70;99.90
15676;DHT22;7938;47.666;9.434;2022-10-16T13:16:19;21.10;99.90
15676;DHT22;7938;47.666;9.434;2022-10-16T13:18:57;21.30;99.90
15676;DHT22;7938;47.666;9.434;2022-10-16T13:21:36;21.40;99.90
15676;DHT22;7938;47.666;9.434;2022-10-16T13:24:14;21.60;99.90
15676;DHT22;7938;47.666;9.434;2022-10-16T13:26:48;21.80;99.90
15676;DHT22;7938;47.666;9.434;2022-10-16T13:29:18;22.00;99.90
15676;DHT22;7938;47.666;9.434;2022-10-16T13:31:46;21.70;99.90
15676;DHT22;7938;47.666;9.434;2022-10-16T13:34:17;21.70;99.90
15676;DHT22;7938;47.666;9.434;2022-10-16T13:36:46;21.60;99.90
15676;DHT22;7938;47.666;9.434;2022-10-16T13:39:22;21.60;99.90
15676;DHT22;7938;47.666;9.434;2022-10-16T13:42:01;21.50;99.90
15676;DHT22;7938;47.666;9.434;2022-10-16T13:44:33;21.50;99.90
15676;DHT22;7938;47.666;9.434;2022-10-16T13:47:02;21.40;99.90
15676;DHT22;7938;47.666;9.434;2022-10-16T13:49:31;21.50;99.90
15676;DHT22;7938;47.666;9.434;2022-10-16T13:51:58;21.60;99.90
15676;DHT22;7938;47.666;9.434;2022-10-16T13:54:26;21.60;99.90
15676;DHT22;7938;47.666;9.434;2022-10-16T13:56:54;21.80;99.90
15676;DHT22;7938;47.666;9.434;2022-10-16T13:59:24;21.90;99.90
15676;DHT22;7938;47.666;9.434;2022-10-16T14:01:52;22.00;99.90
15676;DHT22;7938;47.666;9.434;2022-10-16T14:04:20;21.90;99.90
15676;DHT22;7938;47.666;9.434;2022-10-16T14:06:50;22.00;99.90
15676;DHT22;7938;47.666;9.434;2022-10-16T14:09:22;21.90;99.90
15676;DHT22;7938;47.666;9.434;2022-10-16T14:11:51;21.90;99.90
15676;DHT22;7938;47.666;9.434;2022-10-16T14:14:19;22.00;99.90
15676;DHT22;7938;47.666;9.434;2022-10-16T14:16:46;21.30;99.90
15676;DHT22;7938;47.666;9.434;2022-10-16T14:19:19;21.50;99.90
15676;DHT22;7938;47.666;9.434;2022-10-16T14:21:48;21.50;99.90
15676;DHT22;7938;47.666;9.434;2022-10-16T14:24:26;21.20;99.90
15676;DHT22;7938;47.666;9.434;2022-10-16T14:26:54;21.20;99.90
15676;DHT22;7938;47.666;9.434;2022-10-16T14:29:23;21.30;99.90
15676;DHT22;7938;47.666;9.434;2022-10-16T14:31:57;21.20;99.90
15676;DHT22;7938;47.666;9.434;2022-10-16T14:34:29;21.20;99.90
15676;DHT22;7938;47.666;9.434;2022-10-16T14:37:01;21.30;99.90
15676;DHT22;7938;47.666;9.434;2022-10-16T14:39:33;21.40;99.90
15676;DHT22;7938;47.666;9.434;2022-10-16T14:42:00;21.70;99.90
15676;DHT22;7938;47.666;9.434;2022-10-16T14:44:31;21.80;99.90
15676;DHT22;7938;47.666;9.434;2022-10-16T14:47:07;21.70;99.90
15676;DHT22;7938;47.666;9.434;2022-10-16T14:49:35;21.90;99.90
15676;DHT22;7938;47.666;9.434;2022-10-16T14:52:08;21.90;99.90
15676;DHT22;7938;47.666;9.434;2022-10-16T14:54:35;22.00;99.90
15676;DHT22;7938;47.666;9.434;2022-10-16T14:57:02;22.00;99.90
15676;DHT22;7938;47.666;9.434;2022-10-16T14:59:33;21.90;99.90
15676;DHT22;7938;47.666;9.434;2022-10-16T15:02:14;21.90;99.90
15676;DHT22;7938;47.666;9.434;2022-10-16T15:04:43;21.80;99.90
15676;DHT22;7938;47.666;9.434;2022-10-16T15:07:11;21.80;99.90
15676;DHT22;7938;47.666;9.434;2022-10-16T15:09:38;21.90;99.90
15676;DHT22;7938;47.666;9.434;2022-10-16T15:12:05;22.30;99.90
15676;DHT22;7938;47.666;9.434;2022-10-16T15:14:32;22.80;99.90
15676;DHT22;7938;47.666;9.434;2022-10-16T15:16:58;23.30;99.90
15676;DHT22;7938;47.666;9.434;2022-10-16T15:19:25;24.00;99.90
15676;DHT22;7938;47.666;9.434;2022-10-16T15:21:52;24.10;99.90
15676;DHT22;7938;47.666;9.434;2022-10-16T15:24:21;23.90;99.90
15676;DHT22;7938;47.666;9.434;2022-10-16T15:26:47;23.60;99.90
15676;DHT22;7938;47.666;9.434;2022-10-16T15:29:15;23.30;99.90
15676;DHT22;7938;47.666;9.434;2022-10-16T15:31:42;22.70;99.90
15676;DHT22;7938;47.666;9.434;2022-10-16T15:34:09;22.10;99.90
15676;DHT22;7938;47.666;9.434;2022-10-16T15:36:37;21.80;99.90
15676;DHT22;7938;47.666;9.434;2022-10-16T15:39:05;21.60;99.90
15676;DHT22;7938;47.666;9.434;2022-10-16T15:41:34;21.30;99.90
15676;DHT22;7938;47.666;9.434;2022-10-16T15:44:01;21.60;99.90
15676;DHT22;7938;47.666;9.434;2022-10-16T15:46:27;22.20;99.90
15676;DHT22;7938;47.666;9.434;2022-10-16T15:48:57;22.60;99.90
15676;DHT22;7938;47.666;9.434;2022-10-16T15:51:25;22.50;99.90
15676;DHT22;7938;47.666;9.434;2022-10-16T15:53:53;22.10;99.90
15676;DHT22;7938;47.666;9.434;2022-10-16T15:56:19;22.00;99.90
15676;DHT22;7938;47.666;9.434;2022-10-16T15:58:49;21.70;99.90
15676;DHT22;7938;47.666;9.434;2022-10-16T16:01:15;21.60;99.90
15676;DHT22;7938;47.666;9.434;2022-10-16T16:03:42;21.70;99.90
15676;DHT22;7938;47.666;9.434;2022-10-16T16:06:12;21.70;99.90
15676;DHT22;7938;47.666;9.434;2022-10-16T16:08:39;21.20;99.90
15676;DHT22;7938;47.666;9.434;2022-10-16T16:11:08;20.60;99.90
15676;DHT22;7938;47.666;9.434;2022-10-16T16:13:35;20.10;99.90
15676;DHT22;7938;47.666;9.434;2022-10-16T16:16:07;19.60;99.90
15676;DHT22;7938;47.666;9.434;2022-10-16T16:18:34;19.00;99.90
15676;DHT22;7938;47.666;9.434;2022-10-16T16:21:02;18.60;99.90
15676;DHT22;7938;47.666;9.434;2022-10-16T16:23:29;18.30;99.90
15676;DHT22;7938;47.666;9.434;2022-10-16T16:26:04;18.10;99.90
15676;DHT22;7938;47.666;9.434;2022-10-16T16:28:31;17.70;99.90
15676;DHT22;7938;47.666;9.434;2022-10-16T16:30:58;17.60;99.90
15676;DHT22;7938;47.666;9.434;2022-10-16T16:33:26;17.40;99.90
15676;DHT22;7938;47.666;9.434;2022-10-16T16:35:57;17.30;99.90
15676;DHT22;7938;47.666;9.434;2022-10-16T16:38:25;17.20;99.90
15676;DHT22;7938;47.666;9.434;2022-10-16T16:40:51;17.10;99.90
15676;DHT22;7938;47.666;9.434;2022-10-16T16:43:18;16.90;99.90
15676;DHT22;7938;47.666;9.434;2022-10-16T16:45:45;16.70;99.90
15676;DHT22;7938;47.666;9.434;2022-10-16T16:48:12;16.60;99.90
15676;DHT22;7938;47.666;9.434;2022-10-16T16:50:41;16.40;99.90
15676;DHT22;7938;47.666;9.434;2022-10-16T16:53:07;16.30;99.90
15676;DHT22;7938;47.666;9.434;2022-10-16T16:55:34;16.20;99.90
15676;DHT22;7938;47.666;9.434;2022-10-16T16:58:01;16.10;99.90
15676;DHT22;7938;47.666;9.434;2022-10-16T17:00:30;16.00;99.90
15676;DHT22;7938;47.666;9.434;2022-10-16T17:02:57;16.00;99.90
15676;DHT22;7938;47.666;9.434;2022-10-16T17:05:24;15.90;99.90
15676;DHT22;7938;47.666;9.434;2022-10-16T17:07:52;15.90;99.90
15676;DHT22;7938;47.666;9.434;2022-10-16T17:10:19;15.80;99.90
15676;DHT22;7938;47.666;9.434;2022-10-16T17:12:46;15.70;99.90
15676;DHT22;7938;47.666;9.434;2022-10-16T17:15:13;15.70;99.90
15676;DHT22;7938;47.666;9.434;2022-10-16T17:17:40;15.50;99.90
15676;DHT22;7938;47.666;9.434;2022-10-16T17:20:08;15.50;99.90
15676;DHT22;7938;47.666;9.434;2022-10-16T17:22:35;15.60;99.90
15676;DHT22;7938;47.666;9.434;2022-10-16T17:25:04;15.60;99.90
15676;DHT22;7938;47.666;9.434;2022-10-16T17:27:32;15.70;99.90
15676;DHT22;7938;47.666;9.434;2022-10-16T17:30:01;15.70;99.90
15676;DHT22;7938;47.666;9.434;2022-10-16T17:32:27;15.90;99.90
15676;DHT22;7938;47.666;9.434;2022-10-16T17:34:54;16.30;99.90
15676;DHT22;7938;47.666;9.434;2022-10-16T17:37:21;16.40;99.90
15676;DHT22;7938;47.666;9.434;2022-10-16T17:39:49;16.60;99.90
15676;DHT22;7938;47.666;9.434;2022-10-16T17:42:18;16.60;99.90
15676;DHT22;7938;47.666;9.434;2022-10-16T17:44:45;16.50;99.90
15676;DHT22;7938;47.666;9.434;2022-10-16T17:47:12;16.50;99.90
15676;DHT22;7938;47.666;9.434;2022-10-16T17:49:39;16.50;99.90
15676;DHT22;7938;47.666;9.434;2022-10-16T17:52:06;16.40;99.90
15676;DHT22;7938;47.666;9.434;2022-10-16T17:54:32;16.50;99.90
15676;DHT22;7938;47.666;9.434;2022-10-16T17:57:00;16.60;99.90
15676;DHT22;7938;47.666;9.434;2022-10-16T17:59:28;16.80;99.90
15676;DHT22;7938;47.666;9.434;2022-10-16T18:01:55;16.80;99.90
15676;DHT22;7938;47.666;9.434;2022-10-16T18:04:22;16.90;99.90
15676;DHT22;7938;47.666;9.434;2022-10-16T18:06:49;16.90;99.90
15676;DHT22;7938;47.666;9.434;2022-10-16T18:09:17;16.90;99.90
15676;DHT22;7938;47.666;9.434;2022-10-16T18:11:46;16.90;99.90
15676;DHT22;7938;47.666;9.434;2022-10-16T18:14:15;16.80;99.90
15676;DHT22;7938;47.666;9.434;2022-10-16T18:16:43;16.70;99.90
15676;DHT22;7938;47.666;9.434;2022-10-16T18:19:10;16.60;99.90
15676;DHT22;7938;47.666;9.434;2022-10-16T18:21:37;16.50;99.90
15676;DHT22;7938;47.666;9.434;2022-10-16T18:24:05;16.40;99.90
15676;DHT22;7938;47.666;9.434;2022-10-16T18:26:31;16.30;99.90
15676;DHT22;7938;47.666;9.434;2022-10-16T18:28:58;16.30;99.90
15676;DHT22;7938;47.666;9.434;2022-10-16T18:31:27;16.40;99.90
15676;DHT22;7938;47.666;9.434;2022-10-16T18:33:56;16.30;99.90
15676;DHT22;7938;47.666;9.434;2022-10-16T18:36:25;16.10;99.90
15676;DHT22;7938;47.666;9.434;2022-10-16T18:38:54;15.90;99.90
15676;DHT22;7938;47.666;9.434;2022-10-16T18:41:22;15.80;99.90
15676;DHT22;7938;47.666;9.434;2022-10-16T18:43:49;15.50;99.90
15676;DHT22;7938;47.666;9.434;2022-10-16T18:46:17;15.40;99.90
15676;DHT22;7938;47.666;9.434;2022-10-16T18:48:45;15.20;99.90
15676;DHT22;7938;47.666;9.434;2022-10-16T18:51:16;15.10;99.90
15676;DHT22;7938;47.666;9.434;2022-10-16T18:53:45;14.90;99.90
15676;DHT22;7938;47.666;9.434;2022-10-16T18:56:13;14.80;99.90
15676;DHT22;7938;47.666;9.434;2022-10-16T18:58:41;14.60;99.90
15676;DHT22;7938;47.666;9.434;2022-10-16T19:01:10;14.40;99.90
15676;DHT22;7938;47.666;9.434;2022-10-16T19:03:37;14.40;99.90
15676;DHT22;7938;47.666;9.434;2022-10-16T19:06:08;14.30;99.90
15676;DHT22;7938;47.666;9.434;2022-10-16T19:08:37;14.20;99.90
15676;DHT22;7938;47.666;9.434;2022-10-16T19:11:06;14.10;99.90
15676;DHT22;7938;47.666;9.434;2022-10-16T19:13:33;14.10;99.90
15676;DHT22;7938;47.666;9.434;2022-10-16T19:16:00;14.00;99.90
15676;DHT22;7938;47.666;9.434;2022-10-16T19:18:28;14.00;99.90
15676;DHT22;7938;47.666;9.434;2022-10-16T19:21:02;13.90;99.90
15676;DHT22;7938;47.666;9.434;2022-10-16T19:23:29;13.90;99.90
15676;DHT22;7938;47.666;9.434;2022-10-16T19:26:01;13.80;99.90
15676;DHT22;7938;47.666;9.434;2022-10-16T19:28:28;13.70;99.90
15676;DHT22;7938;47.666;9.434;2022-10-16T19:30:56;13.70;99.90
15676;DHT22;7938;47.666;9.434;2022-10-16T19:33:26;13.60;99.90
15676;DHT22;7938;47.666;9.434;2022-10-16T19:35:53;13.60;99.90
15676;DHT22;7938;47.666;9.434;2022-10-16T19:38:20;13.60;99.90
15676;DHT22;7938;47.666;9.434;2022-10-16T19:40:47;13.50;99.90
15676;DHT22;7938;47.666;9.434;2022-10-16T19:43:15;13.50;99.90
15676;DHT22;7938;47.666;9.434;2022-10-16T19:45:43;13.40;99.90
15676;DHT22;7938;47.666;9.434;2022-10-16T19:48:10;13.30;99.90
15676;DHT22;7938;47.666;9.434;2022-10-16T19:50:44;13.00;99.90
15676;DHT22;7938;47.666;9.434;2022-10-16T19:53:11;13.20;99.90
15676;DHT22;7938;47.666;9.434;2022-10-16T19:55:38;13.10;99.90
15676;DHT22;7938;47.666;9.434;2022-10-16T19:58:04;13.10;99.90
15676;DHT22;7938;47.666;9.434;2022-10-16T20:00:33;13.00;99.90
15676;DHT22;7938;47.666;9.434;2022-10-16T20:03:00;13.00;99.90
15676;DHT22;7938;47.666;9.434;2022-10-16T20:05:28;12.90;99.90
15676;DHT22;7938;47.666;9.434;2022-10-16T20:07:54;12.80;99.90